This is the latest recevied weather packets stored in our database for station/object K0CVS. If no packets are shown the sender has not sent any weather packets the latest 1 day(s).
| Time | Temp. | Humidity | Pressure | Rain* | Wind** | Luminosity | Snow |
|---|---|---|---|---|---|---|---|
| 1778111726 | 15° C | 34% | 1017.2 hPa | 0 mm | - | 16 W/m² | - |
| 1778110816 | 15° C | 34% | 1017.3 hPa | 0 mm | - | 18 W/m² | - |
| 1778109299 | 15° C | 34% | 1017.2 hPa | 0 mm | - | 22 W/m² | - |
| 1778108692 | 15° C | 32% | 1017.4 hPa | 0 mm | - | 23 W/m² | - |
| 1778108389 | 15° C | 33% | 1017.3 hPa | 0 mm | - | 24 W/m² | - |
| 1778106570 | 15.56° C | 32% | 1017.6 hPa | 0 mm | - | 28 W/m² | - |
| 1778106266 | 15.56° C | 32% | 1017.3 hPa | 0 mm | - | 29 W/m² | - |
| 1778105660 | 15.56° C | 34% | 1017.3 hPa | 0 mm | - | 30 W/m² | - |
| 1778104750 | 15.56° C | 33% | 1017.5 hPa | 0 mm | - | 32 W/m² | - |
| 1778103537 | 16.11° C | 32% | 1017.7 hPa | 0 mm | - | 278 W/m² | - |
| 1778102322 | 15.56° C | 32% | 1017.8 hPa | 0 mm | - | 483 W/m² | - |
| 1778101110 | 15.56° C | 34% | 1018.1 hPa | 0 mm | - | 538 W/m² | - |
| 1778100497 | 15.56° C | 33% | 1018.2 hPa | 0 mm | - | 565 W/m² | - |
| 1778100195 | 15.56° C | 34% | 1018.4 hPa | 0 mm | - | 577 W/m² | - |
| 1778098983 | 15.56° C | 32% | 1018.7 hPa | 0 mm | - | 625 W/m² | - |
| 1778098377 | 15.56° C | 33% | 1018.7 hPa | 0 mm | - | 647 W/m² | - |
| 1778096255 | 15° C | 35% | 1018.9 hPa | 0 mm | - | 713 W/m² | - |
| 1778094435 | 15° C | 32% | 1019 hPa | 0 mm | - | 749 W/m² | - |
| 1778093525 | 15° C | 33% | 1019.1 hPa | 0 mm | - | 757 W/m² | - |
| 1778092616 | 14.44° C | 32% | 1019.3 hPa | 0 mm | - | 769 W/m² | - |
| 1778086859 | 13.33° C | 36% | 1019.6 hPa | 0 mm | - | 410 W/m² | - |
| 1778085648 | 13.33° C | 37% | 1019.5 hPa | 0 mm | - | 463 W/m² | - |
| 1778084433 | 12.78° C | 39% | 1019.6 hPa | 0 mm | - | 387 W/m² | - |
| 1778083828 | 12.78° C | 41% | 1019.5 hPa | 0 mm | - | 308 W/m² | - |
| 1778080602 | 12.22° C | 47% | 1018.9 hPa | 0 mm | - | 111 W/m² | - |
* Rain latest hour (hover to see other rain measurements)
** Current wind speed in m/s (hover to see current wind gust speed)